createdAt,value
2023-01-23T00:00:42.262Z,97.70
2023-01-23T00:01:42.282Z,97.49
2023-01-23T00:02:42.394Z,97.91
2023-01-23T00:03:42.272Z,97.59
2023-01-23T00:04:42.229Z,97.91
2023-01-23T00:05:42.234Z,97.70
2023-01-23T00:06:42.215Z,97.80
2023-01-23T00:07:42.228Z,98.01
2023-01-23T00:08:42.211Z,97.38
2023-01-23T00:09:42.175Z,97.70
2023-01-23T00:10:42.146Z,97.28
2023-01-23T00:11:42.186Z,97.28
2023-01-23T00:12:42.165Z,97.59
2023-01-23T00:13:42.127Z,97.28
2023-01-23T00:14:42.139Z,97.59
2023-01-23T00:15:42.113Z,97.28
2023-01-23T00:16:42.090Z,97.70
2023-01-23T00:17:42.076Z,97.53
2023-01-23T00:18:42.196Z,97.43
2023-01-23T00:19:42.077Z,97.28
2023-01-23T00:20:42.047Z,97.49
2023-01-23T00:21:42.094Z,97.43
2023-01-23T00:22:42.056Z,97.28
2023-01-23T00:23:42.014Z,97.22
2023-01-23T00:24:42.022Z,97.91
2023-01-23T00:25:41.988Z,97.74
2023-01-23T00:26:42.003Z,97.70
2023-01-23T00:27:41.991Z,97.70
2023-01-23T00:28:41.995Z,98.11
2023-01-23T00:29:41.952Z,97.80
2023-01-23T00:30:42.033Z,97.80
2023-01-23T00:31:42.166Z,97.80
2023-01-23T00:32:41.925Z,97.91
2023-01-23T00:33:41.928Z,97.70
2023-01-23T00:34:42.023Z,97.80
2023-01-23T00:35:41.932Z,97.70
2023-01-23T00:36:41.881Z,97.80
2023-01-23T00:37:41.888Z,98.01
2023-01-23T00:38:41.884Z,97.91
2023-01-23T00:39:41.864Z,97.91
2023-01-23T00:40:41.845Z,97.91
2023-01-23T00:41:41.828Z,97.59
2023-01-23T00:42:41.833Z,97.70
2023-01-23T00:43:41.823Z,97.80
2023-01-23T00:44:41.804Z,97.80
2023-01-23T00:45:41.827Z,97.70
2023-01-23T00:46:41.815Z,97.33
2023-01-23T00:47:41.758Z,97.07
2023-01-23T00:48:41.764Z,97.59
2023-01-23T00:49:41.728Z,97.38
2023-01-23T00:50:41.847Z,97.38
2023-01-23T00:51:41.732Z,97.49
2023-01-23T00:52:41.713Z,97.28
2023-01-23T00:53:41.715Z,97.38
2023-01-23T00:54:41.701Z,96.97
2023-01-23T00:55:41.677Z,97.59
2023-01-23T00:56:41.676Z,97.49
2023-01-23T00:57:41.660Z,97.38
2023-01-23T00:58:42.842Z,97.28
2023-01-23T00:59:41.645Z,97.17
2023-01-23T01:00:41.633Z,97.38
2023-01-23T01:01:41.692Z,97.49
2023-01-23T01:02:41.660Z,97.38
2023-01-23T01:03:41.610Z,96.86
2023-01-23T01:04:41.607Z,97.28
2023-01-23T01:05:41.574Z,97.49
2023-01-23T01:06:41.686Z,97.17
2023-01-23T01:07:41.560Z,97.17
2023-01-23T01:08:41.550Z,97.07
2023-01-23T01:09:41.578Z,97.38
2023-01-23T01:10:41.530Z,97.07
2023-01-23T01:11:41.500Z,97.28
2023-01-23T01:12:41.576Z,97.38
2023-01-23T01:13:41.496Z,97.49
2023-01-23T01:14:41.506Z,97.17
2023-01-23T01:15:41.457Z,97.38
2023-01-23T01:16:41.459Z,97.17
2023-01-23T01:17:41.465Z,97.38
2023-01-23T01:18:41.440Z,97.38
2023-01-23T01:19:41.432Z,96.86
2023-01-23T01:20:41.421Z,97.38
2023-01-23T01:21:41.409Z,97.17
2023-01-23T01:22:41.508Z,97.38
2023-01-23T01:23:41.395Z,97.17
2023-01-23T01:24:41.384Z,97.70
2023-01-23T01:25:41.354Z,97.38
2023-01-23T01:26:41.361Z,97.22
2023-01-23T01:27:41.324Z,97.07
2023-01-23T01:28:41.396Z,97.70
2023-01-23T01:29:41.303Z,97.59
2023-01-23T01:30:41.388Z,97.28
2023-01-23T01:31:41.332Z,97.38
2023-01-23T01:32:41.278Z,97.38
2023-01-23T01:33:41.334Z,97.38
2023-01-23T01:34:41.260Z,97.38
2023-01-23T01:35:41.276Z,97.33
2023-01-23T01:36:41.257Z,97.59
2023-01-23T01:37:41.213Z,97.95
2023-01-23T01:38:41.328Z,97.64
2023-01-23T01:39:41.213Z,97.80
2023-01-23T01:40:41.210Z,98.01
2023-01-23T01:41:41.208Z,98.01
2023-01-23T01:42:41.184Z,98.01
2023-01-23T01:43:41.160Z,98.01
2023-01-23T01:44:41.185Z,97.91
2023-01-23T01:45:41.166Z,97.85
2023-01-23T01:46:41.179Z,97.85
2023-01-23T01:47:41.121Z,97.80
2023-01-23T01:48:41.123Z,97.91
2023-01-23T01:49:41.126Z,97.91
2023-01-23T01:50:41.098Z,97.43
2023-01-23T01:51:41.096Z,97.28
2023-01-23T01:52:41.120Z,97.43
2023-01-23T01:53:41.094Z,97.28
2023-01-23T01:54:41.155Z,97.70
2023-01-23T01:55:41.040Z,97.28
2023-01-23T01:56:41.034Z,97.28
2023-01-23T01:57:41.032Z,97.07
2023-01-23T01:58:41.005Z,97.38
2023-01-23T01:59:41.807Z,97.28
2023-01-23T02:00:40.995Z,97.07
2023-01-23T02:01:41.011Z,97.38
2023-01-23T02:02:40.967Z,97.17
2023-01-23T02:03:40.971Z,97.07
2023-01-23T02:04:40.935Z,97.49
2023-01-23T02:05:40.924Z,97.38
2023-01-23T02:06:40.919Z,97.49
2023-01-23T02:07:40.923Z,97.17
2023-01-23T02:08:40.894Z,97.28
2023-01-23T02:09:40.894Z,97.17
2023-01-23T02:10:41.002Z,97.28
2023-01-23T02:11:40.920Z,97.53
2023-01-23T02:12:40.891Z,97.49
2023-01-23T02:13:40.848Z,97.28
2023-01-23T02:14:40.848Z,97.07
2023-01-23T02:15:40.848Z,97.38
2023-01-23T02:16:40.970Z,97.64
2023-01-23T02:17:40.839Z,97.28
2023-01-23T02:18:40.836Z,97.38
2023-01-23T02:19:40.799Z,97.53
2023-01-23T02:20:40.818Z,97.53
2023-01-23T02:21:40.757Z,97.91
2023-01-23T02:22:40.742Z,97.85
2023-01-23T02:23:40.770Z,97.80
2023-01-23T02:24:40.731Z,97.91
2023-01-23T02:25:40.754Z,97.91
2023-01-23T02:26:40.813Z,97.91
2023-01-23T02:27:40.696Z,97.91
2023-01-23T02:28:40.701Z,98.01
2023-01-23T02:29:40.674Z,97.70
2023-01-23T02:30:40.733Z,98.05
2023-01-23T02:31:40.749Z,97.95
2023-01-23T02:32:40.659Z,97.49
2023-01-23T02:33:40.628Z,97.74
2023-01-23T02:34:40.636Z,97.85
2023-01-23T02:35:40.592Z,97.85
2023-01-23T02:36:40.623Z,97.80
2023-01-23T02:37:40.597Z,97.53
2023-01-23T02:38:40.589Z,97.64
2023-01-23T02:39:40.590Z,97.74
2023-01-23T02:40:40.558Z,97.59
2023-01-23T02:41:40.541Z,97.85
2023-01-23T02:42:40.677Z,97.64
2023-01-23T02:43:40.550Z,98.05
2023-01-23T02:44:40.543Z,97.85
2023-01-23T02:45:40.558Z,97.85
2023-01-23T02:46:40.493Z,97.95
2023-01-23T02:47:40.492Z,97.74
2023-01-23T02:48:40.499Z,97.85
2023-01-23T02:49:40.550Z,97.43
2023-01-23T02:50:40.466Z,97.43
2023-01-23T02:51:40.431Z,97.43
2023-01-23T02:52:40.443Z,97.53
2023-01-23T02:53:40.411Z,97.33
2023-01-23T02:54:40.447Z,97.43
2023-01-23T02:55:40.425Z,97.64
2023-01-23T02:56:40.434Z,97.53
2023-01-23T02:57:40.402Z,97.43
2023-01-23T02:58:40.468Z,97.43
2023-01-23T02:59:40.350Z,97.53
2023-01-23T03:00:40.376Z,97.95
2023-01-23T03:01:40.343Z,97.85
2023-01-23T03:02:40.336Z,97.85
2023-01-23T03:03:40.318Z,97.85
2023-01-23T03:04:40.302Z,97.95
2023-01-23T03:05:40.303Z,97.95
2023-01-23T03:06:40.328Z,97.95
2023-01-23T03:07:40.269Z,97.95
2023-01-23T03:08:40.256Z,97.95
2023-01-23T03:09:40.302Z,98.10
2023-01-23T03:10:40.232Z,97.53
2023-01-23T03:11:40.301Z,97.64
2023-01-23T03:12:40.212Z,97.74
2023-01-23T03:13:40.280Z,97.64
2023-01-23T03:14:40.332Z,97.64
2023-01-23T03:15:40.179Z,97.64
2023-01-23T03:16:40.271Z,97.68
2023-01-23T03:17:40.187Z,97.64
2023-01-23T03:18:53.510Z,97.43
2023-01-23T03:19:41.233Z,97.53
2023-01-23T03:20:40.151Z,97.43
2023-01-23T03:21:40.235Z,97.95
2023-01-23T03:22:40.134Z,97.53
2023-01-23T03:23:40.122Z,98.16
2023-01-23T03:24:40.087Z,98.16
2023-01-23T03:25:40.095Z,98.16
2023-01-23T03:26:40.078Z,98.16
2023-01-23T03:27:40.091Z,98.16
2023-01-23T03:28:40.038Z,98.16
2023-01-23T03:29:40.037Z,98.16
2023-01-23T03:30:40.171Z,98.16
2023-01-23T03:31:40.076Z,97.85
2023-01-23T03:32:40.023Z,97.74
2023-01-23T03:33:40.042Z,97.85
2023-01-23T03:34:39.987Z,97.64
2023-01-23T03:35:40.031Z,97.64
2023-01-23T03:36:39.955Z,97.95
2023-01-23T03:37:39.974Z,97.95
2023-01-23T03:38:39.964Z,97.85
2023-01-23T03:39:39.933Z,97.85
2023-01-23T03:40:39.926Z,97.53
2023-01-23T03:41:39.937Z,97.64
2023-01-23T03:42:39.913Z,97.33
2023-01-23T03:43:39.898Z,97.78
2023-01-23T03:44:39.880Z,97.12
2023-01-23T03:45:39.862Z,97.12
2023-01-23T03:46:39.960Z,97.37
2023-01-23T03:47:39.912Z,97.12
2023-01-23T03:48:39.837Z,97.58
2023-01-23T03:49:39.815Z,97.53
2023-01-23T03:50:39.816Z,97.58
2023-01-23T03:51:39.835Z,97.58
2023-01-23T03:52:39.809Z,97.27
2023-01-23T03:53:39.799Z,97.47
2023-01-23T03:54:39.767Z,97.89
2023-01-23T03:55:39.769Z,97.58
2023-01-23T03:56:39.758Z,97.37
2023-01-23T03:57:39.806Z,97.06
2023-01-23T03:58:39.723Z,97.16
2023-01-23T03:59:39.712Z,97.31
2023-01-23T04:00:39.734Z,97.41
2023-01-23T04:01:39.716Z,97.16
2023-01-23T04:02:39.782Z,97.00
2023-01-23T04:03:39.678Z,96.79
2023-01-23T04:04:39.679Z,96.89
2023-01-23T04:05:39.637Z,96.89
2023-01-23T04:06:39.640Z,97.20
2023-01-23T04:07:39.625Z,96.79
2023-01-23T04:08:39.630Z,97.31
2023-01-23T04:09:39.619Z,97.83
2023-01-23T04:10:39.599Z,97.31
2023-01-23T04:11:39.585Z,97.62
2023-01-23T04:12:39.589Z,97.41
2023-01-23T04:13:39.632Z,97.62
2023-01-23T04:14:39.567Z,97.41
2023-01-23T04:15:39.529Z,97.62
2023-01-23T04:16:40.405Z,97.94
2023-01-23T04:17:42.011Z,98.04
2023-01-23T04:18:39.625Z,98.14
2023-01-23T04:19:39.518Z,97.72
2023-01-23T04:20:39.484Z,97.83
2023-01-23T04:21:39.516Z,97.94
2023-01-23T04:22:39.470Z,97.62
2023-01-23T04:23:39.473Z,98.04
2023-01-23T04:24:39.457Z,98.14
2023-01-23T04:25:39.428Z,98.25
2023-01-23T04:26:39.423Z,98.56
2023-01-23T04:27:39.414Z,98.46
2023-01-23T04:28:39.468Z,98.35
2023-01-23T04:29:39.390Z,98.56
2023-01-23T04:30:39.452Z,98.56
2023-01-23T04:31:39.472Z,98.41
2023-01-23T04:32:39.366Z,98.35
2023-01-23T04:33:39.365Z,98.20
2023-01-23T04:34:39.461Z,98.25
2023-01-23T04:35:39.318Z,98.25
2023-01-23T04:36:39.316Z,98.04
2023-01-23T04:37:39.304Z,98.14
2023-01-23T04:38:39.293Z,98.31
2023-01-23T04:39:39.304Z,98.35
2023-01-23T04:40:39.265Z,98.10
2023-01-23T04:41:39.275Z,97.99
2023-01-23T04:42:41.111Z,98.14
2023-01-23T04:43:39.259Z,97.99
2023-01-23T04:44:39.243Z,98.25
2023-01-23T04:45:39.288Z,98.20
2023-01-23T04:46:39.210Z,98.41
2023-01-23T04:47:39.193Z,98.52
2023-01-23T04:48:39.220Z,98.20
2023-01-23T04:49:39.204Z,98.31
2023-01-23T04:50:39.289Z,98.25
2023-01-23T04:51:39.150Z,97.68
2023-01-23T04:52:39.146Z,97.78
2023-01-23T04:53:39.160Z,97.72
2023-01-23T04:54:39.110Z,97.72
2023-01-23T04:55:39.103Z,97.89
2023-01-23T04:56:39.135Z,97.89
2023-01-23T04:57:39.093Z,97.99
2023-01-23T04:58:39.109Z,97.99
2023-01-23T04:59:39.071Z,98.04
2023-01-23T05:00:39.069Z,98.04
2023-01-23T05:01:39.095Z,97.99
2023-01-23T05:02:39.146Z,97.99
2023-01-23T05:03:39.042Z,98.14
2023-01-23T05:04:39.046Z,97.72
2023-01-23T05:05:39.017Z,98.14
2023-01-23T05:06:39.096Z,98.14
2023-01-23T05:07:38.979Z,97.72
2023-01-23T05:08:38.981Z,98.04
2023-01-23T05:09:38.962Z,98.04
2023-01-23T05:10:38.970Z,98.04
2023-01-23T05:11:38.974Z,98.04
2023-01-23T05:12:38.938Z,98.04
2023-01-23T05:13:38.939Z,98.04
2023-01-23T05:14:38.916Z,97.62
2023-01-23T05:15:38.956Z,97.41
2023-01-23T05:16:38.900Z,97.20
2023-01-23T05:17:38.922Z,97.41
2023-01-23T05:18:38.906Z,97.31
2023-01-23T05:19:38.848Z,97.88
2023-01-23T05:20:38.839Z,97.46
2023-01-23T05:21:38.840Z,97.46
2023-01-23T05:22:38.936Z,97.35
2023-01-23T05:23:38.852Z,97.52
2023-01-23T05:24:38.816Z,97.67
2023-01-23T05:25:38.791Z,98.19
2023-01-23T05:26:38.784Z,98.04
2023-01-23T05:27:38.778Z,97.72
2023-01-23T05:28:38.773Z,97.77
2023-01-23T05:29:38.818Z,97.94
2023-01-23T05:30:38.833Z,97.72
2023-01-23T05:31:38.851Z,98.25
2023-01-23T05:32:38.714Z,98.04
2023-01-23T05:33:38.705Z,98.35
2023-01-23T05:34:38.705Z,98.35
2023-01-23T05:35:38.729Z,98.35
2023-01-23T05:36:38.674Z,98.35
2023-01-23T05:37:38.670Z,98.46
2023-01-23T05:38:38.668Z,98.56
2023-01-23T05:39:38.645Z,98.46
2023-01-23T05:40:38.632Z,98.56
2023-01-23T05:41:38.646Z,98.25
2023-01-23T05:42:38.638Z,98.46
2023-01-23T05:43:38.592Z,98.46
2023-01-23T05:44:38.615Z,98.46
2023-01-23T05:45:38.644Z,97.99
2023-01-23T05:46:38.587Z,98.14
2023-01-23T05:47:38.588Z,98.56
2023-01-23T05:48:38.584Z,98.35
2023-01-23T05:49:38.541Z,98.35
2023-01-23T05:50:38.523Z,98.04
2023-01-23T05:51:38.552Z,98.46
2023-01-23T05:52:38.502Z,98.14
2023-01-23T05:53:38.489Z,98.97
2023-01-23T05:54:38.617Z,98.35
2023-01-23T05:55:38.480Z,98.87
2023-01-23T05:56:38.450Z,98.87
2023-01-23T05:57:38.487Z,98.97
2023-01-23T05:58:38.451Z,98.97
2023-01-23T05:59:38.455Z,98.77
2023-01-23T06:00:38.415Z,98.77
2023-01-23T06:01:38.427Z,98.87
2023-01-23T06:02:38.491Z,98.77
2023-01-23T06:03:38.469Z,99.08
2023-01-23T06:04:38.401Z,98.97
2023-01-23T06:05:38.369Z,99.18
2023-01-23T06:06:38.390Z,99.40
2023-01-23T06:07:38.349Z,99.29
2023-01-23T06:08:38.386Z,99.29
2023-01-23T06:09:38.316Z,98.77
2023-01-23T06:10:38.470Z,98.77
2023-01-23T06:11:38.306Z,98.77
2023-01-23T06:12:38.296Z,98.66
2023-01-23T06:13:38.283Z,98.97
2023-01-23T06:14:38.284Z,98.72
2023-01-23T06:15:38.321Z,98.87
2023-01-23T06:16:38.252Z,98.66
2023-01-23T06:17:38.281Z,98.97
2023-01-23T06:18:38.240Z,99.18
2023-01-23T06:19:38.270Z,99.35
2023-01-23T06:20:38.194Z,99.60
2023-01-23T06:21:38.193Z,99.08
2023-01-23T06:22:38.186Z,98.77
2023-01-23T06:23:38.198Z,98.35
2023-01-23T06:24:38.183Z,98.56
2023-01-23T06:25:38.169Z,98.56
2023-01-23T06:26:38.243Z,98.46
2023-01-23T06:27:38.146Z,98.46
2023-01-23T06:28:38.148Z,98.25
2023-01-23T06:29:38.114Z,98.25
2023-01-23T06:30:38.160Z,98.14
2023-01-23T06:31:38.145Z,98.25
2023-01-23T06:32:38.072Z,98.20
2023-01-23T06:33:39.069Z,98.31
2023-01-23T06:34:38.068Z,98.41
2023-01-23T06:35:38.073Z,98.52
2023-01-23T06:36:38.042Z,98.41
2023-01-23T06:37:38.039Z,98.41
2023-01-23T06:38:38.013Z,98.52
2023-01-23T06:39:38.032Z,98.41
2023-01-23T06:40:37.987Z,98.41
2023-01-23T06:41:38.032Z,98.83
2023-01-23T06:42:38.069Z,98.20
2023-01-23T06:43:38.014Z,98.31
2023-01-23T06:44:37.953Z,98.10
2023-01-23T06:45:37.936Z,97.99
2023-01-23T06:46:37.980Z,97.99
2023-01-23T06:47:37.931Z,97.78
2023-01-23T06:48:37.891Z,98.10
2023-01-23T06:49:37.905Z,97.47
2023-01-23T06:50:37.914Z,97.47
2023-01-23T06:51:37.945Z,97.68
2023-01-23T06:52:37.875Z,97.68
2023-01-23T06:53:37.852Z,97.68
2023-01-23T06:54:37.845Z,97.68
2023-01-23T06:55:37.843Z,97.58
2023-01-23T06:56:37.823Z,97.58
2023-01-23T06:57:37.807Z,97.99
2023-01-23T06:58:37.919Z,98.10
2023-01-23T06:59:37.789Z,98.10
2023-01-23T07:00:37.761Z,97.99
2023-01-23T07:01:37.796Z,98.20
2023-01-23T07:02:37.766Z,98.10
2023-01-23T07:03:37.752Z,98.20
2023-01-23T07:04:37.725Z,98.20
2023-01-23T07:05:37.725Z,98.10
2023-01-23T07:06:37.712Z,97.99
2023-01-23T07:07:37.731Z,98.20
2023-01-23T07:08:37.747Z,97.99
2023-01-23T07:09:37.674Z,98.10
2023-01-23T07:10:37.688Z,98.31
2023-01-23T07:11:37.688Z,98.52
2023-01-23T07:12:37.644Z,97.99
2023-01-23T07:13:37.624Z,98.10
2023-01-23T07:14:37.721Z,97.47
2023-01-23T07:15:39.605Z,97.89
2023-01-23T07:16:37.601Z,97.78
2023-01-23T07:17:37.594Z,97.47
2023-01-23T07:18:37.573Z,97.68
2023-01-23T07:19:37.574Z,97.99
2023-01-23T07:20:37.556Z,97.85
2023-01-23T07:21:37.619Z,97.89
2023-01-23T07:22:37.549Z,97.89
2023-01-23T07:23:37.560Z,97.99
2023-01-23T07:24:37.511Z,97.89
2023-01-23T07:25:37.511Z,98.05
2023-01-23T07:26:37.510Z,97.68
2023-01-23T07:27:37.497Z,97.74
2023-01-23T07:28:37.476Z,97.43
2023-01-23T07:29:37.462Z,97.43
2023-01-23T07:30:37.613Z,97.78
2023-01-23T07:31:37.514Z,97.68
2023-01-23T07:32:37.455Z,97.68
2023-01-23T07:33:37.430Z,97.99
2023-01-23T07:34:37.443Z,97.89
2023-01-23T07:35:37.423Z,97.99
2023-01-23T07:36:37.400Z,98.10
2023-01-23T07:37:37.402Z,97.53
2023-01-23T07:38:37.363Z,97.64
2023-01-23T07:39:37.357Z,97.68
2023-01-23T07:40:37.349Z,97.85
2023-01-23T07:41:37.390Z,97.85
2023-01-23T07:42:37.319Z,97.74
2023-01-23T07:43:37.302Z,97.43
2023-01-23T07:44:37.324Z,97.12
2023-01-23T07:45:37.321Z,97.43
2023-01-23T07:46:37.438Z,97.43
2023-01-23T07:47:37.272Z,97.33
2023-01-23T07:48:37.259Z,97.33
2023-01-23T07:49:37.253Z,97.01
2023-01-23T07:50:37.248Z,96.28
2023-01-23T07:51:37.248Z,96.28
2023-01-23T07:52:37.231Z,96.28
2023-01-23T07:53:37.203Z,96.28
2023-01-23T07:54:37.222Z,96.49
2023-01-23T07:55:37.204Z,96.28
2023-01-23T07:56:37.230Z,96.18
2023-01-23T07:57:37.175Z,96.18
2023-01-23T07:58:37.167Z,96.28
2023-01-23T07:59:37.142Z,95.97
2023-01-23T08:00:37.181Z,95.76
2023-01-23T08:01:37.135Z,96.18
2023-01-23T08:02:37.237Z,96.08
2023-01-23T08:03:37.246Z,95.51
2023-01-23T08:04:37.085Z,95.45
2023-01-23T08:05:37.089Z,95.56
2023-01-23T08:06:37.061Z,95.76
2023-01-23T08:07:37.103Z,95.56
2023-01-23T08:08:37.041Z,95.45
2023-01-23T08:09:37.049Z,94.93
2023-01-23T08:10:37.049Z,95.45
2023-01-23T08:11:37.032Z,95.03
2023-01-23T08:12:37.015Z,94.82
2023-01-23T08:13:37.004Z,95.56
2023-01-23T08:14:36.983Z,95.30
2023-01-23T08:15:36.991Z,95.66
2023-01-23T08:16:37.069Z,95.35
2023-01-23T08:17:37.025Z,95.20
2023-01-23T08:18:37.059Z,95.72
2023-01-23T08:19:36.937Z,95.40
2023-01-23T08:20:36.915Z,95.72
2023-01-23T08:21:36.909Z,95.62
2023-01-23T08:22:36.915Z,95.51
2023-01-23T08:23:36.935Z,94.99
2023-01-23T08:24:36.868Z,95.40
2023-01-23T08:25:36.861Z,95.09
2023-01-23T08:26:36.911Z,95.72
2023-01-23T08:27:36.991Z,95.30
2023-01-23T08:28:36.865Z,95.30
2023-01-23T08:29:36.819Z,95.20
2023-01-23T08:30:36.830Z,95.30
2023-01-23T08:31:36.841Z,95.35
2023-01-23T08:32:36.803Z,95.45
2023-01-23T08:33:36.785Z,95.09
2023-01-23T08:34:36.792Z,95.09
2023-01-23T08:35:36.768Z,95.30
2023-01-23T08:36:36.743Z,95.20
2023-01-23T08:37:36.784Z,94.99
2023-01-23T08:38:36.741Z,95.30
2023-01-23T08:39:36.732Z,95.20
2023-01-23T08:40:36.717Z,95.30
2023-01-23T08:41:36.690Z,95.09
2023-01-23T08:42:36.766Z,95.09
2023-01-23T08:43:36.668Z,95.20
2023-01-23T08:44:36.669Z,95.09
2023-01-23T08:45:36.692Z,95.20
2023-01-23T08:46:36.674Z,95.09
2023-01-23T08:47:37.154Z,95.40
2023-01-23T08:48:36.629Z,95.30
2023-01-23T08:49:36.606Z,95.51
2023-01-23T08:50:36.704Z,94.95
2023-01-23T08:51:36.575Z,94.99
2023-01-23T08:52:36.580Z,94.26
2023-01-23T08:53:36.581Z,94.16
2023-01-23T08:54:36.558Z,94.43
2023-01-23T08:55:36.549Z,94.43
2023-01-23T08:56:36.553Z,94.37
2023-01-23T08:57:36.570Z,93.95
2023-01-23T08:58:36.514Z,94.01
2023-01-23T08:59:36.509Z,94.37
2023-01-23T09:00:36.521Z,94.43
2023-01-23T09:01:36.490Z,93.74
2023-01-23T09:02:36.482Z,93.85
2023-01-23T09:03:36.452Z,93.95
2023-01-23T09:04:36.452Z,93.85
2023-01-23T09:05:36.452Z,94.26
2023-01-23T09:06:36.561Z,93.95
2023-01-23T09:07:36.419Z,94.06
2023-01-23T09:08:36.432Z,94.37
2023-01-23T09:09:36.612Z,94.47
2023-01-23T09:10:36.413Z,94.16
2023-01-23T09:11:37.001Z,94.47
2023-01-23T09:12:36.657Z,94.47
2023-01-23T09:13:36.366Z,93.85
2023-01-23T09:14:36.367Z,94.06
2023-01-23T09:15:36.394Z,94.37
2023-01-23T09:16:36.407Z,94.47
2023-01-23T09:17:36.326Z,94.47
2023-01-23T09:18:36.337Z,94.16
2023-01-23T09:19:36.343Z,94.68
2023-01-23T09:20:36.311Z,94.68
2023-01-23T09:21:36.290Z,94.95
2023-01-23T09:22:36.371Z,94.64
2023-01-23T09:23:36.270Z,93.64
2023-01-23T09:24:36.233Z,93.85
2023-01-23T09:25:36.214Z,93.85
2023-01-23T09:26:36.223Z,94.37
2023-01-23T09:27:36.202Z,94.57
2023-01-23T09:28:36.189Z,94.99
2023-01-23T09:29:36.236Z,94.89
2023-01-23T09:30:36.181Z,94.95
2023-01-23T09:31:36.195Z,94.95
2023-01-23T09:32:36.151Z,94.84
2023-01-23T09:33:36.129Z,95.05
2023-01-23T09:34:36.189Z,93.80
2023-01-23T09:35:36.123Z,94.18
2023-01-23T09:36:42.994Z,93.70
2023-01-23T09:37:36.100Z,93.97
2023-01-23T09:38:36.193Z,94.07
2023-01-23T09:39:36.299Z,93.76
2023-01-23T09:40:36.092Z,93.66
2023-01-23T09:41:36.050Z,93.24
2023-01-23T09:42:36.041Z,93.24
2023-01-23T09:43:36.060Z,92.82
2023-01-23T09:44:36.085Z,93.03
2023-01-23T09:45:36.034Z,92.51
2023-01-23T09:46:36.020Z,92.93
2023-01-23T09:47:35.987Z,92.68
2023-01-23T09:48:35.976Z,91.95
2023-01-23T09:49:35.996Z,91.95
2023-01-23T09:50:35.997Z,91.95
2023-01-23T09:51:35.927Z,92.05
2023-01-23T09:52:35.986Z,92.20
2023-01-23T09:53:35.930Z,92.16
2023-01-23T09:54:36.030Z,91.85
2023-01-23T09:55:35.918Z,91.43
2023-01-23T09:56:35.892Z,91.74
2023-01-23T09:57:35.914Z,92.05
2023-01-23T09:58:35.937Z,91.43
2023-01-23T09:59:37.607Z,91.43
2023-01-23T10:00:35.851Z,91.12
2023-01-23T10:01:35.827Z,91.22
2023-01-23T10:02:35.881Z,91.33
2023-01-23T10:03:35.826Z,90.81
2023-01-23T10:04:35.796Z,90.91
2023-01-23T10:05:35.811Z,89.98
2023-01-23T10:06:35.846Z,90.29
2023-01-23T10:07:35.799Z,90.19
2023-01-23T10:08:35.785Z,90.08
2023-01-23T10:09:35.749Z,90.91
2023-01-23T10:10:35.845Z,90.91
2023-01-23T10:11:35.753Z,91.02
2023-01-23T10:12:35.736Z,91.28
2023-01-23T10:13:35.694Z,91.28
2023-01-23T10:14:36.661Z,90.56
2023-01-23T10:15:35.675Z,90.77
2023-01-23T10:16:49.593Z,90.56
2023-01-23T10:17:36.708Z,90.45
2023-01-23T10:18:35.708Z,90.56
2023-01-23T10:19:35.618Z,89.83
2023-01-23T10:20:35.619Z,90.45
2023-01-23T10:21:35.621Z,90.10
2023-01-23T10:22:35.633Z,89.73
2023-01-23T10:23:35.598Z,89.27
2023-01-23T10:24:40.176Z,89.00
2023-01-23T10:25:35.594Z,88.28
2023-01-23T10:26:35.589Z,88.13
2023-01-23T10:27:35.558Z,88.28
2023-01-23T10:28:35.544Z,88.38
2023-01-23T10:29:35.547Z,87.76
2023-01-23T10:30:35.669Z,88.28
2023-01-23T10:31:35.623Z,88.17
2023-01-23T10:32:35.520Z,88.69
2023-01-23T10:33:35.470Z,88.59
2023-01-23T10:34:35.492Z,88.69
2023-01-23T10:35:35.462Z,88.28
2023-01-23T10:36:47.441Z,88.38
2023-01-23T10:37:36.463Z,88.90
2023-01-23T10:38:35.419Z,88.90
2023-01-23T10:39:35.439Z,89.11
2023-01-23T10:40:35.432Z,89.00
2023-01-23T10:41:35.385Z,88.90
2023-01-23T10:42:35.509Z,88.54
2023-01-23T10:43:35.363Z,88.69
2023-01-23T10:44:35.373Z,88.13
2023-01-23T10:45:35.353Z,88.17
2023-01-23T10:46:35.443Z,88.48
2023-01-23T10:47:35.671Z,88.28
2023-01-23T10:48:35.314Z,88.48
2023-01-23T10:49:35.467Z,88.48
2023-01-23T10:50:35.320Z,87.86
2023-01-23T10:51:35.396Z,87.96
2023-01-23T10:52:35.295Z,88.59
2023-01-23T10:53:35.278Z,88.17
2023-01-23T10:54:35.251Z,87.51
2023-01-23T10:55:35.249Z,87.65
2023-01-23T10:56:35.291Z,87.71
2023-01-23T10:57:35.225Z,87.34
2023-01-23T10:58:35.319Z,88.44
2023-01-23T10:59:35.233Z,88.23
2023-01-23T11:00:35.190Z,88.79
2023-01-23T11:01:35.218Z,88.48
2023-01-23T11:02:35.320Z,88.54
2023-01-23T11:03:35.227Z,88.65
2023-01-23T11:04:35.164Z,88.54
2023-01-23T11:05:46.571Z,88.02
2023-01-23T11:06:36.129Z,88.44
2023-01-23T11:07:35.270Z,88.23
2023-01-23T11:08:35.105Z,86.57
2023-01-23T11:09:35.074Z,87.13
2023-01-23T11:10:35.091Z,86.68
2023-01-23T11:11:35.070Z,87.30
2023-01-23T11:12:35.111Z,87.19
2023-01-23T11:13:35.057Z,87.30
2023-01-23T11:14:35.167Z,86.88
2023-01-23T11:15:35.050Z,86.78
2023-01-23T11:16:35.011Z,87.09
2023-01-23T11:17:34.994Z,86.36
2023-01-23T11:18:35.002Z,86.26
2023-01-23T11:19:34.995Z,86.26
2023-01-23T11:20:34.974Z,86.57
2023-01-23T11:21:34.970Z,86.85
2023-01-23T11:22:34.964Z,86.85
2023-01-23T11:23:34.954Z,86.57
2023-01-23T11:24:40.210Z,86.02
2023-01-23T11:25:35.924Z,86.22
2023-01-23T11:26:34.898Z,86.43
2023-01-23T11:27:34.882Z,86.33
2023-01-23T11:28:34.933Z,85.04
2023-01-23T11:29:34.865Z,85.19
2023-01-23T11:30:34.986Z,85.08
2023-01-23T11:31:34.962Z,84.88
2023-01-23T11:32:34.867Z,85.19
2023-01-23T11:33:34.928Z,85.19
2023-01-23T11:34:34.809Z,85.33
2023-01-23T11:35:34.806Z,85.39
2023-01-23T11:36:34.815Z,85.29
2023-01-23T11:37:34.779Z,85.08
2023-01-23T11:38:35.923Z,85.39
2023-01-23T11:39:34.770Z,85.53
2023-01-23T11:40:34.773Z,85.08
2023-01-23T11:41:34.816Z,85.81
2023-01-23T11:42:34.752Z,85.19
2023-01-23T11:43:34.722Z,85.19
2023-01-23T11:44:41.492Z,85.19
2023-01-23T11:45:35.707Z,85.35
2023-01-23T11:46:34.935Z,85.08
2023-01-23T11:47:34.682Z,85.19
2023-01-23T11:48:34.668Z,85.08
2023-01-23T11:49:34.705Z,85.29
2023-01-23T11:50:37.169Z,85.81
2023-01-23T11:51:35.756Z,84.88
2023-01-23T11:52:34.649Z,85.50
2023-01-23T11:53:42.299Z,85.19
2023-01-23T11:54:35.603Z,84.05
2023-01-23T11:55:35.017Z,84.36
2023-01-23T11:56:34.603Z,84.56
2023-01-23T11:57:34.571Z,84.77
2023-01-23T11:58:39.697Z,84.15
2023-01-23T11:59:35.536Z,84.36
2023-01-23T12:00:34.536Z,84.25
2023-01-23T12:01:34.549Z,84.36
2023-01-23T12:02:34.696Z,83.63
2023-01-23T12:03:34.565Z,84.25
2023-01-23T12:04:34.491Z,84.15
2023-01-23T12:05:34.476Z,84.25
2023-01-23T12:06:34.496Z,84.88
2023-01-23T12:07:34.456Z,84.42
2023-01-23T12:08:34.438Z,84.21
2023-01-23T12:09:34.447Z,84.63
2023-01-23T12:10:34.430Z,84.42
2023-01-23T12:11:34.425Z,83.69
2023-01-23T12:12:34.411Z,84.00
2023-01-23T12:13:34.389Z,83.84
2023-01-23T12:14:34.385Z,84.36
2023-01-23T12:15:34.371Z,83.53
2023-01-23T12:16:34.418Z,83.84
2023-01-23T12:17:34.407Z,83.94
2023-01-23T12:18:35.274Z,84.67
2023-01-23T12:19:34.374Z,83.94
2023-01-23T12:20:34.319Z,84.11
2023-01-23T12:21:34.318Z,84.11
2023-01-23T12:22:34.299Z,83.28
2023-01-23T12:23:34.277Z,83.69
2023-01-23T12:24:34.268Z,83.69
2023-01-23T12:25:34.288Z,84.21
2023-01-23T12:26:34.248Z,83.90
2023-01-23T12:27:34.286Z,83.90
2023-01-23T12:28:34.265Z,84.56
2023-01-23T12:29:34.245Z,89.77
2023-01-23T12:30:34.265Z,86.35
2023-01-23T12:31:34.310Z,85.00
2023-01-23T12:32:34.202Z,83.76
2023-01-23T12:33:34.186Z,83.55
2023-01-23T12:34:34.287Z,83.65
2023-01-23T12:35:34.163Z,83.65
2023-01-23T12:36:40.340Z,83.69
2023-01-23T12:37:35.150Z,82.65
2023-01-23T12:38:34.129Z,82.24
2023-01-23T12:39:34.113Z,82.65
2023-01-23T12:40:34.103Z,82.24
2023-01-23T12:41:34.096Z,83.48
2023-01-23T12:42:34.112Z,83.45
2023-01-23T12:43:34.064Z,83.69
2023-01-23T12:44:34.066Z,83.34
2023-01-23T12:45:34.054Z,84.00
2023-01-23T12:46:34.115Z,83.34
2023-01-23T12:47:34.066Z,82.93
2023-01-23T12:48:34.017Z,82.82
2023-01-23T12:49:34.027Z,83.34
2023-01-23T12:50:34.104Z,83.14
2023-01-23T12:51:34.077Z,82.31
2023-01-23T12:52:33.979Z,83.03